Time;durP1;ratioP1;P1;durP2;ratioP2;P2;SDS_P1;SDS_P2;PMS_P1;PMS_P2;Temp;Humidity;BMP_temperature;BMP_pressure;BME280_temperature;BME280_humidity;BME280_pressure;Samples;Min_cycle;Max_cycle;Signal;HPM_P1;HPM_P2
2022/01/30 00:01:35;;;;;;;6.50;1.30;;;7.10;99.90;;;;;;5036039;28;20195;-64
2022/01/30 00:04:00;;;;;;;2.27;0.90;;;7.10;99.90;;;;;;5037370;28;20174;-64
2022/01/30 00:06:26;;;;;;;1.33;0.80;;;7.00;99.90;;;;;;5032202;28;20916;-73
2022/01/30 00:08:52;;;;;;;3.87;1.03;;;6.90;99.90;;;;;;5035257;28;20204;-70
2022/01/30 00:11:24;;;;;;;7.47;1.77;;;8.00;99.90;;;;;;5035351;28;20189;-70
2022/01/30 00:13:50;;;;;;;2.93;1.43;;;8.10;99.90;;;;;;5037682;28;20299;-71
2022/01/30 00:16:19;;;;;;;3.67;0.90;;;8.20;99.90;;;;;;5037368;28;20208;-65
2022/01/30 00:18:54;;;;;;;5.60;1.20;;;7.40;99.90;;;;;;5041840;28;20514;-69
2022/01/30 00:21:34;;;;;;;1.50;0.90;;;6.90;99.90;;;;;;5039007;28;20184;-64
2022/01/30 00:24:43;;;;;;;8.77;1.73;;;6.80;99.90;;;;;;5040480;28;20212;-65
2022/01/30 00:26:51;;;;;;;6.93;1.57;;;6.70;99.90;;;;;;5034582;28;20295;-66
2022/01/30 00:29:17;;;;;;;6.67;1.23;;;6.70;99.90;;;;;;5040207;28;20347;-66
2022/01/30 00:31:43;;;;;;;1.70;1.13;;;6.50;99.90;;;;;;5039782;28;20645;-64
2022/01/30 00:34:08;;;;;;;2.73;0.80;;;6.50;99.90;;;;;;5044878;28;20192;-67
2022/01/30 00:36:34;;;;;;;1.53;0.80;;;6.50;99.90;;;;;;5041016;28;20188;-63
2022/01/30 00:39:01;;;;;;;5.57;1.20;;;6.50;99.90;;;;;;5042218;28;20251;-64
2022/01/30 00:41:27;;;;;;;6.53;1.30;;;6.60;99.90;;;;;;5041000;28;20196;-65
2022/01/30 00:43:52;;;;;;;6.83;1.40;;;6.60;99.90;;;;;;5040013;28;20200;-64
2022/01/30 00:46:18;;;;;;;8.83;1.30;;;6.60;99.90;;;;;;5039820;28;20236;-65
2022/01/30 00:48:44;;;;;;;7.90;1.30;;;6.60;99.90;;;;;;5041001;28;20215;-63
2022/01/30 00:51:10;;;;;;;5.20;1.50;;;6.60;99.90;;;;;;5040817;28;20182;-64
2022/01/30 00:53:35;;;;;;;5.23;1.33;;;6.40;99.90;;;;;;5042015;28;20187;-64
2022/01/30 00:56:01;;;;;;;9.33;0.97;;;6.50;99.90;;;;;;5044258;28;20177;-63
2022/01/30 00:58:27;;;;;;;11.63;1.40;;;6.50;99.90;;;;;;5040459;28;20207;-64
2022/01/30 01:00:53;;;;;;;2.93;1.20;;;6.50;99.90;;;;;;5043943;28;20184;-68
2022/01/30 01:03:18;;;;;;;5.70;1.60;;;6.40;99.90;;;;;;5041320;28;20188;-65
2022/01/30 01:05:44;;;;;;;11.67;1.90;;;6.40;99.90;;;;;;5043660;28;20194;-64
2022/01/30 01:08:19;;;;;;;7.13;1.53;;;6.40;99.90;;;;;;5042913;28;20204;-65
2022/01/30 01:11:00;;;;;;;9.27;1.73;;;6.40;99.90;;;;;;5042405;28;20172;-64
2022/01/30 01:24:07;;;;;;;6.57;1.37;;;6.50;99.90;;;;;;5043153;28;20776;-63
2022/01/30 01:26:34;;;;;;;6.43;1.83;;;6.50;99.90;;;;;;5040598;28;20255;-64
2022/01/30 01:29:00;;;;;;;4.07;1.27;;;6.50;99.90;;;;;;5042860;28;20206;-67
2022/01/30 01:31:26;;;;;;;6.20;1.40;;;6.50;99.90;;;;;;5040216;28;20212;-66
2022/01/30 01:36:36;;;;;;;4.57;1.83;;;6.50;99.90;;;;;;5042965;28;20318;-65
2022/01/30 01:39:03;;;;;;;15.43;2.20;;;6.50;99.90;;;;;;5040985;28;20674;-65
2022/01/30 01:41:31;;;;;;;7.13;2.13;;;6.50;99.90;;;;;;5039531;28;20548;-64
2022/01/30 01:43:57;;;;;;;5.07;1.50;;;6.40;99.90;;;;;;5040830;28;20244;-64
2022/01/30 01:46:27;;;;;;;8.57;1.53;;;6.60;99.90;;;;;;5039801;28;20620;-68
2022/01/30 01:48:53;;;;;;;3.30;1.37;;;6.70;99.90;;;;;;5040789;28;20201;-65
2022/01/30 01:51:30;;;;;;;3.73;1.30;;;6.80;99.90;;;;;;5038155;28;20192;-64
2022/01/30 01:53:57;;;;;;;2.27;1.27;;;6.90;99.90;;;;;;5043094;28;20176;-65
2022/01/30 01:56:23;;;;;;;4.20;1.63;;;6.90;99.90;;;;;;5040121;28;20585;-68
2022/01/30 01:58:49;;;;;;;3.00;1.47;;;6.80;99.90;;;;;;5038217;28;20274;-65
2022/01/30 02:01:14;;;;;;;9.60;1.27;;;6.80;99.90;;;;;;5040709;28;20270;-64
2022/01/30 02:03:41;;;;;;;6.93;1.53;;;6.60;99.90;;;;;;5038902;28;20282;-64
2022/01/30 02:06:10;;;;;;;3.47;1.10;;;6.60;99.90;;;;;;5040966;28;20188;-64
2022/01/30 02:08:41;;;;;;;3.17;1.50;;;6.50;99.90;;;;;;5040987;28;20200;-64
2022/01/30 02:27:05;;;;;;;0.93;0.77;;;6.60;99.90;;;;;;5036402;28;20182;-65
2022/01/30 02:29:32;;;;;;;6.00;1.17;;;6.50;99.90;;;;;;5037722;28;20203;-65
2022/01/30 02:31:59;;;;;;;3.13;0.70;;;6.60;99.90;;;;;;5037520;28;20179;-63
2022/01/30 02:34:29;;;;;;;4.57;0.87;;;6.60;99.90;;;;;;5039141;28;20279;-67
2022/01/30 02:36:55;;;;;;;3.73;1.03;;;6.70;99.90;;;;;;5031641;28;20627;-64
2022/01/30 02:39:22;;;;;;;3.63;0.80;;;6.60;99.90;;;;;;5065159;28;20196;-64
2022/01/30 02:41:48;;;;;;;2.20;1.17;;;6.60;99.90;;;;;;5040154;28;20203;-63
2022/01/30 02:44:22;;;;;;;2.57;0.77;;;6.70;99.90;;;;;;5039496;28;20648;-63
2022/01/30 02:46:51;;;;;;;3.47;1.30;;;6.70;99.90;;;;;;5037689;28;20188;-64
2022/01/30 02:51:49;;;;;;;10.33;1.87;;;6.60;99.90;;;;;;5037862;28;20209;-64
2022/01/30 02:54:15;;;;;;;4.47;1.23;;;6.60;99.90;;;;;;5037468;28;20646;-64
2022/01/30 02:56:41;;;;;;;8.03;1.23;;;6.50;99.90;;;;;;5037655;28;20196;-64
2022/01/30 02:59:07;;;;;;;7.67;1.70;;;6.50;99.90;;;;;;5035360;28;22241;-64
2022/01/30 03:01:33;;;;;;;1.20;1.03;;;6.40;99.90;;;;;;5039734;28;20191;-64
2022/01/30 03:03:59;;;;;;;8.30;1.37;;;6.50;99.90;;;;;;5037102;28;20177;-64
2022/01/30 03:06:25;;;;;;;5.20;1.53;;;6.40;99.90;;;;;;5037857;28;20176;-68
2022/01/30 03:08:51;;;;;;;2.50;1.13;;;6.40;99.90;;;;;;5036938;28;20217;-64
2022/01/30 03:11:17;;;;;;;6.30;1.47;;;6.30;99.90;;;;;;5037350;28;20600;-65
2022/01/30 03:13:42;;;;;;;3.10;1.20;;;6.30;99.90;;;;;;5037659;28;20198;-64
2022/01/30 03:16:08;;;;;;;6.87;1.53;;;6.40;99.90;;;;;;5037022;28;20194;-64
2022/01/30 03:18:34;;;;;;;6.67;1.20;;;6.30;99.90;;;;;;5038073;28;20211;-63
2022/01/30 03:20:59;;;;;;;9.30;1.50;;;6.30;99.90;;;;;;5038263;28;20537;-64
2022/01/30 03:23:25;;;;;;;2.73;1.20;;;6.30;99.90;;;;;;5038636;28;20496;-64
2022/01/30 03:25:56;;;;;;;4.37;1.23;;;6.30;99.90;;;;;;5037676;28;20188;-64
2022/01/30 03:28:22;;;;;;;8.83;1.13;;;6.30;99.90;;;;;;5038318;28;20299;-63
2022/01/30 03:30:52;;;;;;;10.47;1.87;;;6.30;99.90;;;;;;5041167;28;20262;-63
2022/01/30 03:33:18;;;;;;;3.67;0.90;;;6.20;99.90;;;;;;5044048;28;20198;-64
2022/01/30 03:35:44;;;;;;;5.50;1.17;;;6.20;99.90;;;;;;5039494;28;20189;-69
2022/01/30 03:38:10;;;;;;;5.83;2.00;;;6.30;99.90;;;;;;5041357;28;20245;-62
2022/01/30 03:40:36;;;;;;;4.70;1.33;;;6.30;99.90;;;;;;5039538;28;20185;-69
2022/01/30 03:43:02;;;;;;;8.63;1.60;;;6.30;99.90;;;;;;5041779;28;20191;-63
2022/01/30 03:45:27;;;;;;;3.23;1.07;;;6.30;99.90;;;;;;5039717;28;20287;-64
2022/01/30 03:47:55;;;;;;;6.13;1.37;;;6.30;99.90;;;;;;5038858;28;20217;-65
2022/01/30 03:50:22;;;;;;;3.10;1.23;;;6.30;99.90;;;;;;5040284;28;20279;-66
2022/01/30 03:52:48;;;;;;;10.10;1.70;;;6.30;99.90;;;;;;5042989;28;20275;-64
2022/01/30 03:55:13;;;;;;;14.40;1.87;;;6.20;99.90;;;;;;5041492;28;20267;-63
2022/01/30 03:57:39;;;;;;;4.57;1.40;;;6.20;99.90;;;;;;5040984;28;20691;-64
2022/01/30 04:00:06;;;;;;;8.67;1.87;;;6.10;99.90;;;;;;5039693;28;20181;-63
2022/01/30 04:02:32;;;;;;;6.50;1.77;;;6.20;99.90;;;;;;5039089;28;20229;-63
2022/01/30 04:04:58;;;;;;;3.27;1.30;;;6.20;99.90;;;;;;5040996;28;20254;-65
2022/01/30 04:07:25;;;;;;;5.37;2.17;;;6.10;99.90;;;;;;5041817;28;20761;-63
2022/01/30 04:09:51;;;;;;;4.53;1.70;;;6.10;99.90;;;;;;5041920;28;20190;-63
2022/01/30 04:12:17;;;;;;;5.10;1.63;;;6.20;99.90;;;;;;5042266;28;20263;-72
2022/01/30 04:14:43;;;;;;;7.00;1.53;;;6.20;99.90;;;;;;5040787;28;20185;-64
2022/01/30 04:17:13;;;;;;;4.13;1.60;;;6.20;99.90;;;;;;5040151;28;20212;-65
2022/01/30 04:19:40;;;;;;;5.03;1.60;;;6.10;99.90;;;;;;5044582;28;20173;-65
2022/01/30 04:22:05;;;;;;;6.90;1.43;;;6.20;99.90;;;;;;5043263;28;20267;-64
2022/01/30 04:24:31;;;;;;;3.53;1.40;;;6.20;99.90;;;;;;5038491;28;20273;-63
2022/01/30 04:26:57;;;;;;;3.73;1.53;;;6.20;99.90;;;;;;5071175;28;20187;-64
2022/01/30 04:29:23;;;;;;;5.37;1.27;;;6.30;99.90;;;;;;5039580;28;20219;-63
2022/01/30 04:31:49;;;;;;;9.83;1.87;;;6.20;99.90;;;;;;5039234;28;20184;-64
2022/01/30 04:34:17;;;;;;;4.53;1.43;;;6.20;99.90;;;;;;5041559;28;20267;-66
2022/01/30 04:36:57;;;;;;;6.00;2.27;;;6.20;99.90;;;;;;5041218;28;20218;-63
2022/01/30 04:42:27;;;;;;;4.90;1.40;;;6.20;99.90;;;;;;5039389;28;20180;-63
2022/01/30 04:53:22;;;;;;;8.33;1.60;;;6.20;99.90;;;;;;5040279;28;20193;-64
2022/01/30 04:58:50;;;;;;;11.70;2.53;;;6.10;99.90;;;;;;5042778;28;20229;-64
2022/01/30 05:01:24;;;;;;;11.73;1.63;;;6.00;99.90;;;;;;5039516;28;20179;-66
2022/01/30 05:04:19;;;;;;;5.77;1.47;;;6.10;99.90;;;;;;5040253;28;20176;-65
2022/01/30 05:09:26;;;;;;;4.50;1.57;;;6.10;99.90;;;;;;5041146;28;20224;-64
2022/01/30 05:11:52;;;;;;;4.97;1.53;;;6.10;99.90;;;;;;5039635;28;20186;-63
2022/01/30 05:14:21;;;;;;;4.87;1.17;;;6.00;99.90;;;;;;5038084;28;20245;-66
2022/01/30 05:16:47;;;;;;;3.87;1.00;;;6.20;99.90;;;;;;5039527;28;20177;-64
2022/01/30 05:19:14;;;;;;;3.50;1.10;;;6.10;99.90;;;;;;5040509;28;20295;-63
2022/01/30 05:21:40;;;;;;;5.40;1.43;;;6.20;99.90;;;;;;5041164;28;20210;-64
2022/01/30 05:24:06;;;;;;;5.17;1.70;;;6.20;99.90;;;;;;5040447;28;20546;-64
2022/01/30 05:26:32;;;;;;;4.17;1.43;;;6.20;99.90;;;;;;5038254;28;20476;-63
2022/01/30 05:28:58;;;;;;;4.17;1.40;;;6.20;99.90;;;;;;5039068;28;20204;-63
2022/01/30 05:31:24;;;;;;;5.33;1.50;;;6.20;99.90;;;;;;5040086;28;20310;-64
2022/01/30 05:33:50;;;;;;;2.23;1.13;;;6.20;99.90;;;;;;5039527;28;20206;-63
2022/01/30 05:36:16;;;;;;;3.00;1.10;;;6.20;99.90;;;;;;5040528;28;20643;-64
2022/01/30 05:38:43;;;;;;;7.43;1.50;;;6.20;99.90;;;;;;5039847;28;20326;-63
2022/01/30 05:41:08;;;;;;;4.23;1.40;;;6.20;99.90;;;;;;5038581;28;20249;-64
2022/01/30 05:43:34;;;;;;;14.43;2.13;;;6.20;99.90;;;;;;5039937;28;20183;-65
2022/01/30 05:46:29;;;;;;;1.47;1.20;;;6.20;99.90;;;;;;5037611;28;20660;-66
2022/01/30 05:48:50;;;;;;;6.77;1.43;;;6.20;99.90;;;;;;5039206;28;20241;-65
2022/01/30 05:51:16;;;;;;;7.93;1.53;;;6.20;99.90;;;;;;5039034;28;20186;-63
2022/01/30 05:53:41;;;;;;;2.97;1.17;;;6.20;99.90;;;;;;5039962;28;20196;-63
2022/01/30 05:56:11;;;;;;;5.73;1.90;;;6.20;99.90;;;;;;5039219;28;20702;-65
2022/01/30 05:58:36;;;;;;;4.60;0.87;;;6.20;99.90;;;;;;5038331;28;20185;-62
2022/01/30 06:01:02;;;;;;;3.73;1.23;;;6.20;99.90;;;;;;5036022;28;20181;-63
2022/01/30 06:03:29;;;;;;;9.50;2.00;;;6.20;99.90;;;;;;5039316;28;20184;-65
2022/01/30 06:05:55;;;;;;;3.20;1.60;;;6.20;99.90;;;;;;5037999;28;20172;-63
2022/01/30 06:08:42;;;;;;;3.73;0.90;;;6.30;99.90;;;;;;5037886;28;20219;-62
2022/01/30 06:11:09;;;;;;;5.00;1.73;;;6.30;99.90;;;;;;5040747;28;20295;-65
2022/01/30 06:13:35;;;;;;;7.33;1.27;;;6.30;99.90;;;;;;5040252;28;20350;-65
2022/01/30 06:16:01;;;;;;;12.67;1.73;;;6.30;99.90;;;;;;5035498;28;20257;-62
2022/01/30 06:18:27;;;;;;;4.97;1.47;;;6.30;99.90;;;;;;5039990;28;20275;-63
2022/01/30 06:20:53;;;;;;;2.17;0.90;;;6.20;99.90;;;;;;5040789;28;20640;-64
2022/01/30 06:23:22;;;;;;;5.17;1.17;;;6.30;99.90;;;;;;5038707;28;20181;-63
2022/01/30 06:25:48;;;;;;;6.40;1.57;;;6.30;99.90;;;;;;5041699;28;20188;-63
2022/01/30 06:28:14;;;;;;;11.93;1.50;;;6.30;99.90;;;;;;5045933;28;20312;-63
2022/01/30 06:30:39;;;;;;;5.60;1.23;;;6.30;99.90;;;;;;5051949;28;20212;-66
2022/01/30 06:33:05;;;;;;;3.17;1.40;;;6.40;99.90;;;;;;5056201;28;20247;-63
2022/01/30 06:35:31;;;;;;;4.07;1.30;;;6.30;99.90;;;;;;5054436;28;20587;-64
2022/01/30 06:37:56;;;;;;;5.60;1.20;;;6.30;99.90;;;;;;5039788;28;20239;-64
2022/01/30 06:40:22;;;;;;;9.43;1.17;;;6.30;99.90;;;;;;5037902;28;20190;-63
2022/01/30 06:42:48;;;;;;;4.40;1.33;;;6.30;99.90;;;;;;5038526;28;20249;-62
2022/01/30 06:45:13;;;;;;;12.77;2.17;;;6.30;99.90;;;;;;5032193;28;20183;-63
2022/01/30 06:47:43;;;;;;;3.93;1.93;;;6.20;99.90;;;;;;5038149;28;20215;-70
2022/01/30 06:50:09;;;;;;;9.73;1.70;;;6.40;99.90;;;;;;5037420;28;20195;-63
2022/01/30 06:52:36;;;;;;;10.73;2.50;;;6.30;99.90;;;;;;5039334;28;20282;-63
2022/01/30 06:55:02;;;;;;;7.17;2.00;;;6.40;99.90;;;;;;5038298;28;20537;-63
2022/01/30 06:57:28;;;;;;;12.97;2.27;;;6.40;99.90;;;;;;5037361;28;20208;-65
2022/01/30 06:59:53;;;;;;;5.90;1.80;;;6.50;99.90;;;;;;5038580;28;21076;-63
2022/01/30 07:02:19;;;;;;;1.80;0.90;;;6.50;99.90;;;;;;5034602;28;20180;-64
2022/01/30 07:04:44;;;;;;;6.17;1.47;;;6.40;99.90;;;;;;5038905;28;20680;-64
2022/01/30 07:07:10;;;;;;;8.37;1.30;;;6.40;99.90;;;;;;5042642;28;20190;-63
2022/01/30 07:09:35;;;;;;;5.97;1.40;;;6.40;99.90;;;;;;5036396;28;20395;-63
2022/01/30 07:12:01;;;;;;;6.37;1.23;;;6.40;99.90;;;;;;5037903;28;20184;-63
2022/01/30 07:14:27;;;;;;;1.60;0.93;;;6.30;99.90;;;;;;5037093;28;20245;-64
2022/01/30 07:16:53;;;;;;;8.10;2.30;;;6.30;99.90;;;;;;5032561;28;20539;-67
2022/01/30 07:19:19;;;;;;;3.87;1.90;;;6.30;99.90;;;;;;5038040;28;20198;-62
2022/01/30 07:21:44;;;;;;;5.90;1.27;;;6.30;99.90;;;;;;5041194;28;20616;-63
2022/01/30 07:24:10;;;;;;;3.07;1.00;;;6.30;99.90;;;;;;5036620;28;20222;-64
2022/01/30 07:26:35;;;;;;;4.57;1.93;;;6.30;99.90;;;;;;5039345;28;20196;-66
2022/01/30 07:29:03;;;;;;;5.40;1.70;;;6.30;99.90;;;;;;5037964;28;20263;-63
2022/01/30 07:31:30;;;;;;;11.10;2.13;;;6.30;99.90;;;;;;5041031;28;20189;-65
2022/01/30 07:33:56;;;;;;;4.37;1.87;;;6.30;99.90;;;;;;5038759;28;20298;-74
2022/01/30 07:36:22;;;;;;;4.23;1.57;;;6.30;99.90;;;;;;5041942;28;20621;-68
2022/01/30 07:38:48;;;;;;;4.70;1.50;;;6.30;99.90;;;;;;5043000;28;20291;-65
2022/01/30 07:41:13;;;;;;;7.40;1.80;;;6.20;99.90;;;;;;5043343;28;20183;-64
2022/01/30 07:43:39;;;;;;;5.87;1.20;;;6.40;99.90;;;;;;5042950;28;20185;-66
2022/01/30 07:46:05;;;;;;;6.03;1.80;;;6.20;99.90;;;;;;5038891;28;20207;-64
2022/01/30 07:48:32;;;;;;;1.57;1.37;;;6.20;99.90;;;;;;5040947;28;20260;-66
2022/01/30 07:50:57;;;;;;;8.53;1.83;;;6.20;99.90;;;;;;5046217;28;20183;-68
2022/01/30 07:53:23;;;;;;;14.43;2.00;;;6.20;99.90;;;;;;5042516;28;20186;-64
2022/01/30 07:55:48;;;;;;;3.40;1.57;;;6.20;99.90;;;;;;5041655;28;20177;-63
2022/01/30 07:58:14;;;;;;;14.47;2.30;;;6.20;99.90;;;;;;5042216;28;20200;-65
2022/01/30 08:00:40;;;;;;;11.03;2.53;;;6.20;99.90;;;;;;5044341;28;20274;-64
2022/01/30 08:03:06;;;;;;;10.17;3.10;;;6.20;99.90;;;;;;5041775;28;20180;-66
2022/01/30 08:05:31;;;;;;;9.30;1.93;;;6.10;99.90;;;;;;5041992;28;20265;-65
2022/01/30 08:07:57;;;;;;;7.63;2.13;;;6.10;99.90;;;;;;5038900;28;20216;-64
2022/01/30 08:10:23;;;;;;;7.57;2.17;;;6.10;99.90;;;;;;5041097;28;20196;-64
2022/01/30 08:12:48;;;;;;;7.50;2.47;;;6.10;99.90;;;;;;5041869;28;20737;-64
2022/01/30 08:15:14;;;;;;;11.13;2.50;;;6.20;99.90;;;;;;5043770;28;20247;-65
2022/01/30 08:17:40;;;;;;;10.67;2.97;;;6.10;99.90;;;;;;5039995;28;20197;-64
2022/01/30 08:20:07;;;;;;;9.27;2.27;;;6.10;99.90;;;;;;5042144;28;20186;-65
2022/01/30 08:22:46;;;;;;;3.03;1.83;;;6.10;99.90;;;;;;5039714;28;20192;-65
2022/01/30 08:25:12;;;;;;;3.87;2.70;;;6.10;99.90;;;;;;5040962;28;20181;-67
2022/01/30 08:27:38;;;;;;;8.40;2.23;;;6.10;99.90;;;;;;5038831;28;20223;-63
2022/01/30 08:30:04;;;;;;;9.73;2.93;;;6.10;99.90;;;;;;5040144;28;20185;-64
2022/01/30 08:32:30;;;;;;;10.97;2.47;;;6.00;99.90;;;;;;5041067;28;20195;-64
2022/01/30 08:34:55;;;;;;;19.30;1.77;;;6.00;99.90;;;;;;5041337;28;20192;-65
2022/01/30 08:37:21;;;;;;;9.70;2.33;;;6.00;99.90;;;;;;5039919;28;20317;-64
2022/01/30 08:39:46;;;;;;;10.63;1.87;;;6.00;99.90;;;;;;5041462;28;20194;-63
2022/01/30 08:42:12;;;;;;;10.60;1.83;;;6.00;99.90;;;;;;5040189;28;20189;-65
2022/01/30 08:44:38;;;;;;;14.47;2.63;;;6.00;99.90;;;;;;5041614;28;20191;-64
2022/01/30 08:47:03;;;;;;;11.63;2.60;;;6.00;99.90;;;;;;5041451;28;20181;-65
2022/01/30 08:49:29;;;;;;;14.30;2.77;;;6.10;99.90;;;;;;5042529;28;20220;-63
2022/01/30 08:51:55;;;;;;;11.63;2.97;;;6.10;99.90;;;;;;5040183;28;20191;-64
2022/01/30 08:54:21;;;;;;;9.50;2.00;;;6.10;99.90;;;;;;5041817;28;20218;-63
2022/01/30 08:56:47;;;;;;;11.57;2.30;;;6.10;99.90;;;;;;5039534;28;20176;-64
2022/01/30 08:59:12;;;;;;;10.47;2.30;;;6.20;99.90;;;;;;5038168;28;20193;-64
2022/01/30 09:01:40;;;;;;;13.67;2.17;;;6.20;99.90;;;;;;5041279;28;20197;-68
2022/01/30 09:04:06;;;;;;;16.93;2.33;;;6.30;99.90;;;;;;5038444;28;20683;-65
2022/01/30 09:06:31;;;;;;;10.03;2.87;;;6.30;99.90;;;;;;5033852;28;20201;-66
2022/01/30 09:08:59;;;;;;;16.73;2.47;;;6.30;99.90;;;;;;5039129;28;20199;-63
2022/01/30 09:11:25;;;;;;;8.10;2.77;;;6.40;99.90;;;;;;5039330;28;20296;-64
2022/01/30 09:13:51;;;;;;;9.07;1.80;;;6.50;99.90;;;;;;5039688;28;20214;-68
2022/01/30 09:16:16;;;;;;;9.70;2.47;;;6.50;99.90;;;;;;5040802;28;20242;-67
2022/01/30 09:18:42;;;;;;;9.67;2.80;;;6.50;99.90;;;;;;5041580;28;20190;-65
2022/01/30 09:21:08;;;;;;;11.87;2.27;;;6.50;99.90;;;;;;5039251;28;20206;-65
2022/01/30 09:23:33;;;;;;;14.83;2.80;;;6.40;99.90;;;;;;5039800;28;20527;-69
2022/01/30 09:25:59;;;;;;;4.23;1.87;;;6.50;99.90;;;;;;5037809;28;20195;-65
2022/01/30 09:28:25;;;;;;;9.60;2.57;;;6.50;99.90;;;;;;5035620;28;20216;-65
2022/01/30 09:30:50;;;;;;;6.50;2.30;;;6.40;99.90;;;;;;5036786;28;20666;-66
2022/01/30 09:33:17;;;;;;;13.90;3.27;;;6.40;99.90;;;;;;5037759;28;20659;-63
2022/01/30 09:35:43;;;;;;;17.80;2.57;;;6.50;99.90;;;;;;5042016;28;20665;-64
2022/01/30 09:38:09;;;;;;;10.73;2.00;;;6.40;99.90;;;;;;5040210;28;20307;-68
2022/01/30 09:40:34;;;;;;;5.90;1.90;;;6.40;99.90;;;;;;5040289;28;20189;-63
2022/01/30 09:43:01;;;;;;;8.93;2.40;;;6.40;99.90;;;;;;5040138;28;20212;-65
2022/01/30 09:45:29;;;;;;;8.90;1.73;;;6.40;99.90;;;;;;5040002;28;20280;-66
2022/01/30 09:47:57;;;;;;;23.53;3.90;;;6.40;99.90;;;;;;5040235;28;20207;-64
2022/01/30 09:50:23;;;;;;;17.37;2.27;;;6.50;99.90;;;;;;5043969;28;20254;-63
2022/01/30 09:52:49;;;;;;;10.73;3.53;;;6.30;99.90;;;;;;5047787;28;20637;-65
2022/01/30 09:55:15;;;;;;;13.20;2.63;;;6.30;99.90;;;;;;5044587;28;20192;-64
2022/01/30 09:57:43;;;;;;;7.97;2.30;;;6.30;99.90;;;;;;5042094;28;20187;-65
2022/01/30 10:00:10;;;;;;;12.83;2.93;;;6.40;99.90;;;;;;5039949;28;20186;-64
2022/01/30 10:02:36;;;;;;;11.67;2.37;;;6.30;99.90;;;;;;5039647;28;20184;-64
2022/01/30 10:05:01;;;;;;;18.60;3.03;;;6.30;99.90;;;;;;5039422;28;20563;-66
2022/01/30 10:07:45;;;;;;;13.00;2.53;;;6.30;99.90;;;;;;5041209;28;20185;-65
2022/01/30 10:10:13;;;;;;;13.50;2.67;;;6.30;99.90;;;;;;5036293;28;20201;-66
2022/01/30 10:13:11;;;;;;;21.23;3.40;;;6.30;99.90;;;;;;5039302;28;20245;-63
2022/01/30 10:15:56;;;;;;;13.07;4.17;;;6.30;99.90;;;;;;5036613;28;20540;-63
2022/01/30 10:18:24;;;;;;;8.10;2.63;;;6.30;99.90;;;;;;5035760;28;20178;-63
2022/01/30 10:20:50;;;;;;;14.80;3.17;;;6.30;99.90;;;;;;5031955;28;20184;-64
2022/01/30 10:23:16;;;;;;;8.03;2.30;;;6.40;99.90;;;;;;5037475;28;20211;-64
2022/01/30 10:25:47;;;;;;;12.67;2.40;;;6.40;99.90;;;;;;5038531;28;20184;-64
2022/01/30 10:28:28;;;;;;;6.07;2.47;;;6.30;99.90;;;;;;5069182;28;20651;-66
2022/01/30 10:30:56;;;;;;;18.43;3.27;;;6.30;99.90;;;;;;5036220;28;20181;-66
2022/01/30 10:33:51;;;;;;;12.77;3.37;;;6.30;99.90;;;;;;5036343;28;20237;-63
2022/01/30 10:36:31;;;;;;;5.90;1.30;;;6.30;99.90;;;;;;5034992;28;20201;-65
2022/01/30 10:39:12;;;;;;;7.80;2.63;;;6.30;99.90;;;;;;5036212;28;20235;-64
2022/01/30 10:41:41;;;;;;;19.03;2.67;;;6.30;99.90;;;;;;5033778;28;20242;-63
2022/01/30 10:44:09;;;;;;;10.23;2.27;;;6.30;99.90;;;;;;5041819;28;20271;-65
2022/01/30 10:46:45;;;;;;;13.97;3.20;;;6.30;99.90;;;;;;5032934;28;20199;-63
2022/01/30 10:49:13;;;;;;;17.17;3.00;;;6.30;99.90;;;;;;5037722;28;20204;-63
2022/01/30 10:51:40;;;;;;;12.47;2.70;;;6.40;99.90;;;;;;5036690;28;20189;-65
2022/01/30 10:54:11;;;;;;;7.43;2.00;;;6.30;99.90;;;;;;5038068;28;20185;-66
2022/01/30 10:56:37;;;;;;;17.07;2.60;;;6.30;99.90;;;;;;5036095;28;20248;-63
2022/01/30 10:59:30;;;;;;;13.90;2.37;;;6.40;99.90;;;;;;5029026;28;20213;-64
2022/01/30 11:02:10;;;;;;;21.63;3.23;;;6.30;99.90;;;;;;5035808;28;20184;-65
2022/01/30 11:04:36;;;;;;;23.97;3.53;;;6.30;99.90;;;;;;5036570;28;20187;-63
2022/01/30 11:07:04;;;;;;;16.57;3.70;;;6.30;99.90;;;;;;5039018;28;20190;-66
2022/01/30 11:09:51;;;;;;;12.47;2.93;;;6.30;99.90;;;;;;5039160;28;20207;-64
2022/01/30 11:12:18;;;;;;;17.60;3.90;;;6.40;99.90;;;;;;5037876;28;20232;-63
2022/01/30 11:17:19;;;;;;;19.27;3.00;;;6.40;99.90;;;;;;5037130;28;20188;-66
2022/01/30 11:19:57;;;;;;;11.00;2.37;;;6.30;99.90;;;;;;5037082;28;20177;-67
2022/01/30 11:22:27;;;;;;;11.00;2.60;;;6.30;99.90;;;;;;5030637;28;20334;-64
2022/01/30 11:25:04;;;;;;;14.67;3.60;;;6.30;99.90;;;;;;5031977;28;20195;-63
2022/01/30 11:27:33;;;;;;;11.20;3.10;;;6.40;99.90;;;;;;5031665;28;20237;-65
2022/01/30 11:29:59;;;;;;;16.80;2.87;;;6.40;99.90;;;;;;5037018;28;20224;-64
2022/01/30 11:32:27;;;;;;;7.50;2.17;;;6.30;99.90;;;;;;5036679;28;20636;-64
2022/01/30 11:34:54;;;;;;;12.77;2.60;;;6.40;99.90;;;;;;5033269;28;20243;-64
2022/01/30 11:37:20;;;;;;;15.07;2.77;;;6.30;99.90;;;;;;5032381;28;20238;-64
2022/01/30 11:39:52;;;;;;;10.10;2.53;;;6.20;99.90;;;;;;5031323;28;20183;-65
2022/01/30 11:42:19;;;;;;;8.43;1.97;;;6.30;99.90;;;;;;5032376;28;20628;-63
2022/01/30 11:44:48;;;;;;;9.17;2.13;;;6.40;99.90;;;;;;5031120;28;20214;-69
2022/01/30 11:47:14;;;;;;;20.77;3.07;;;6.30;99.90;;;;;;5030690;28;20177;-64
2022/01/30 11:50:03;;;;;;;14.07;3.20;;;6.40;99.90;;;;;;5031570;28;20516;-63
2022/01/30 11:52:52;;;;;;;6.57;1.63;;;6.40;99.90;;;;;;5033887;28;20193;-70
2022/01/30 11:55:40;;;;;;;8.10;2.27;;;6.40;99.90;;;;;;5034812;28;20237;-63
2022/01/30 11:58:07;;;;;;;16.57;2.00;;;6.40;99.90;;;;;;5043105;28;20176;-64
2022/01/30 12:00:41;;;;;;;15.13;2.70;;;6.50;99.90;;;;;;5047492;28;20177;-65
2022/01/30 12:03:27;;;;;;;7.90;2.63;;;6.30;99.90;;;;;;5045620;28;20196;-64
2022/01/30 12:05:54;;;;;;;11.50;2.43;;;6.40;99.90;;;;;;5047656;28;20176;-65
2022/01/30 12:08:45;;;;;;;7.17;2.33;;;6.40;99.90;;;;;;5046910;28;20204;-64
2022/01/30 12:11:39;;;;;;;24.37;2.50;;;6.40;99.90;;;;;;5043410;28;20191;-64
2022/01/30 12:14:10;;;;;;;17.73;2.90;;;6.40;99.90;;;;;;5042576;28;20203;-65
2022/01/30 12:16:44;;;;;;;7.33;2.30;;;6.40;99.90;;;;;;5042250;28;20197;-64
2022/01/30 12:19:13;;;;;;;11.30;2.70;;;6.40;99.90;;;;;;5042593;28;20191;-63
2022/01/30 12:21:39;;;;;;;6.80;2.67;;;6.40;99.90;;;;;;5040429;28;20194;-64
2022/01/30 12:24:27;;;;;;;12.93;2.33;;;6.40;99.90;;;;;;5039488;28;20220;-65
2022/01/30 12:26:55;;;;;;;7.37;2.23;;;6.50;99.90;;;;;;5038960;28;20274;-64
2022/01/30 12:29:40;;;;;;;14.40;2.87;;;6.40;99.90;;;;;;5033616;28;20217;-64
2022/01/30 12:32:27;;;;;;;11.73;2.07;;;6.40;99.90;;;;;;5033472;28;20198;-64
2022/01/30 12:34:56;;;;;;;11.73;2.23;;;6.50;99.90;;;;;;5029863;28;20195;-67
2022/01/30 12:37:33;;;;;;;16.33;3.30;;;6.40;99.90;;;;;;5032127;28;20232;-65
2022/01/30 12:40:02;;;;;;;14.37;3.40;;;6.40;99.90;;;;;;5042530;28;20191;-65
2022/01/30 12:42:32;;;;;;;20.77;2.27;;;6.40;99.90;;;;;;5035801;28;20530;-65
2022/01/30 12:45:03;;;;;;;11.07;2.67;;;6.40;99.90;;;;;;5032062;28;20241;-67
2022/01/30 12:47:28;;;;;;;14.00;3.57;;;6.40;99.90;;;;;;5035210;28;20234;-63
2022/01/30 12:49:58;;;;;;;8.50;2.07;;;6.50;99.90;;;;;;5033612;28;20201;-65
2022/01/30 12:52:36;;;;;;;14.73;3.77;;;6.40;99.90;;;;;;5034798;28;20528;-64
2022/01/30 12:55:08;;;;;;;14.23;2.60;;;6.40;99.90;;;;;;5033948;28;20256;-63
2022/01/30 12:57:35;;;;;;;12.60;2.97;;;6.40;99.90;;;;;;5033180;28;20269;-64
2022/01/30 13:00:04;;;;;;;12.50;2.33;;;6.40;99.90;;;;;;5037467;28;20190;-66
2022/01/30 13:02:30;;;;;;;16.33;3.33;;;6.40;99.90;;;;;;5035782;28;20593;-67
2022/01/30 13:04:59;;;;;;;12.43;2.57;;;6.50;99.90;;;;;;5033899;28;20274;-65
2022/01/30 13:07:25;;;;;;;20.80;3.23;;;6.50;99.90;;;;;;5036220;28;20197;-62
2022/01/30 13:10:02;;;;;;;13.83;2.93;;;6.50;99.90;;;;;;5033732;28;20258;-64
2022/01/30 13:12:31;;;;;;;19.80;3.63;;;6.50;99.90;;;;;;5032000;28;20675;-66
2022/01/30 13:14:57;;;;;;;12.37;2.83;;;6.40;99.90;;;;;;5034794;28;20179;-69
2022/01/30 13:17:30;;;;;;;7.63;2.70;;;6.30;99.90;;;;;;5033859;28;20190;-63
2022/01/30 13:19:55;;;;;;;22.43;3.03;;;6.50;99.90;;;;;;5032413;28;20618;-64
2022/01/30 13:22:37;;;;;;;12.03;3.03;;;6.40;99.90;;;;;;5035848;28;20278;-64
2022/01/30 13:25:15;;;;;;;12.50;2.50;;;6.40;99.90;;;;;;5034752;28;20182;-64
2022/01/30 13:27:43;;;;;;;14.90;3.17;;;6.40;99.90;;;;;;5032789;28;20205;-64
2022/01/30 13:30:10;;;;;;;15.87;3.47;;;6.40;99.90;;;;;;5036533;28;20282;-64
2022/01/30 13:32:40;;;;;;;14.33;3.40;;;6.40;99.90;;;;;;5034448;28;20180;-65
2022/01/30 13:35:19;;;;;;;20.47;3.93;;;6.30;99.90;;;;;;5037686;28;20578;-65
2022/01/30 13:37:48;;;;;;;15.80;3.90;;;6.40;99.90;;;;;;5034677;28;20266;-65
2022/01/30 13:40:22;;;;;;;12.67;3.10;;;6.40;99.90;;;;;;5035179;28;20209;-64
2022/01/30 13:43:03;;;;;;;19.10;3.30;;;6.40;99.90;;;;;;5035900;28;20189;-70
2022/01/30 13:48:05;;;;;;;9.87;2.93;;;6.40;99.90;;;;;;5035983;28;20221;-65
2022/01/30 13:51:06;;;;;;;9.83;2.47;;;6.40;99.90;;;;;;5035294;28;20222;-64
2022/01/30 13:53:36;;;;;;;10.77;2.43;;;6.40;99.90;;;;;;5032335;28;20184;-64
2022/01/30 13:56:11;;;;;;;16.10;2.73;;;6.40;99.90;;;;;;5032136;28;20242;-65